sensor_id;sensor_type;location;lat;lon;timestamp;pressure;altitude;pressure_sealevel;temperature;humidity
81970;BME280;71469;51.826;4.394;2023-07-13T12:41:15;101843.25;;;27.72;42.98
81970;BME280;71469;51.826;4.394;2023-07-13T12:47:50;101827.94;;;24.55;46.98
81970;BME280;71469;51.826;4.394;2023-07-13T12:50:18;101830.59;;;24.05;47.59
81970;BME280;71469;51.826;4.394;2023-07-13T12:52:50;101837.94;;;23.59;48.23
81970;BME280;71469;51.826;4.394;2023-07-13T12:55:19;101834.59;;;23.42;48.72
81970;BME280;71469;51.826;4.394;2023-07-13T12:57:50;101840.25;;;23.39;47.82
81970;BME280;71469;51.826;4.394;2023-07-13T13:02:50;101842.56;;;23.20;48.63
81970;BME280;71469;51.826;4.394;2023-07-13T13:05:17;101852.25;;;23.27;49.00
81970;BME280;71469;51.826;4.394;2023-07-13T13:07:42;101854.53;;;23.30;48.60
81970;BME280;71469;51.826;4.394;2023-07-13T13:10:12;101842.69;;;23.26;48.42
81970;BME280;71469;51.826;4.394;2023-07-13T13:12:37;101845.56;;;23.39;48.49
81970;BME280;71469;51.826;4.394;2023-07-13T13:15:03;101869.00;;;23.42;47.62
81970;BME280;71469;51.826;4.394;2023-07-13T13:17:30;101851.53;;;23.56;47.38
81970;BME280;71469;51.826;4.394;2023-07-13T13:19:56;101850.91;;;23.98;46.25
81970;BME280;71469;51.826;4.394;2023-07-13T13:22:22;101849.03;;;24.42;45.04
81970;BME280;71469;51.826;4.394;2023-07-13T13:24:47;101856.59;;;24.81;43.72
81970;BME280;71469;51.826;4.394;2023-07-13T13:27:17;101857.44;;;25.03;43.13
81970;BME280;71469;51.826;4.394;2023-07-13T13:29:44;101847.84;;;25.29;42.56
81970;BME280;71469;51.826;4.394;2023-07-13T13:32:14;101865.94;;;25.47;42.31
81970;BME280;71469;51.826;4.394;2023-07-13T13:34:40;101858.19;;;25.73;41.85
81970;BME280;71469;51.826;4.394;2023-07-13T13:37:18;101861.38;;;25.97;41.03
81970;BME280;71469;51.826;4.394;2023-07-13T13:39:44;101862.16;;;26.25;40.93
81970;BME280;71469;51.826;4.394;2023-07-13T13:42:10;101857.34;;;26.61;39.76
81970;BME280;71469;51.826;4.394;2023-07-13T13:44:35;101861.69;;;26.75;39.77
81970;BME280;71469;51.826;4.394;2023-07-13T13:47:01;101853.28;;;26.78;39.07
81970;BME280;71469;51.826;4.394;2023-07-13T13:49:29;101860.91;;;26.94;38.61
81970;BME280;71469;51.826;4.394;2023-07-13T13:51:55;101848.22;;;26.97;37.80
81970;BME280;71469;51.826;4.394;2023-07-13T13:54:21;101869.50;;;27.10;36.86
81970;BME280;71469;51.826;4.394;2023-07-13T13:56:48;101864.81;;;27.31;36.50
81970;BME280;71469;51.826;4.394;2023-07-13T13:59:14;101861.53;;;27.42;35.91
81970;BME280;71469;51.826;4.394;2023-07-13T14:01:40;101858.69;;;27.44;35.96
81970;BME280;71469;51.826;4.394;2023-07-13T14:04:11;101858.03;;;27.55;35.08
81970;BME280;71469;51.826;4.394;2023-07-13T14:06:39;101861.13;;;27.52;35.03
81970;BME280;71469;51.826;4.394;2023-07-13T14:09:09;101849.81;;;27.70;34.70
81970;BME280;71469;51.826;4.394;2023-07-13T14:11:35;101851.84;;;27.81;35.21
81970;BME280;71469;51.826;4.394;2023-07-13T14:14:01;101864.50;;;28.05;34.81
81970;BME280;71469;51.826;4.394;2023-07-13T14:16:32;101865.78;;;27.89;34.44
81970;BME280;71469;51.826;4.394;2023-07-13T14:18:59;101855.31;;;27.88;35.46
81970;BME280;71469;51.826;4.394;2023-07-13T14:21:26;101860.13;;;28.17;35.65
81970;BME280;71469;51.826;4.394;2023-07-13T14:23:52;101868.16;;;28.11;35.14
81970;BME280;71469;51.826;4.394;2023-07-13T14:26:20;101869.38;;;28.15;35.82
81970;BME280;71469;51.826;4.394;2023-07-13T14:28:49;101861.75;;;28.31;35.49
81970;BME280;71469;51.826;4.394;2023-07-13T14:31:16;101833.25;;;28.25;35.58
81970;BME280;71469;51.826;4.394;2023-07-13T14:33:42;101832.00;;;28.28;35.89
81970;BME280;71469;51.826;4.394;2023-07-13T14:36:23;101861.25;;;28.41;36.04
81970;BME280;71469;51.826;4.394;2023-07-13T14:38:50;101855.81;;;28.67;36.20
81970;BME280;71469;51.826;4.394;2023-07-13T14:41:15;101860.53;;;28.58;35.98
81970;BME280;71469;51.826;4.394;2023-07-13T14:43:41;101858.31;;;28.18;36.24
81970;BME280;71469;51.826;4.394;2023-07-13T14:46:11;101859.00;;;28.44;36.35
81970;BME280;71469;51.826;4.394;2023-07-13T14:48:43;101855.59;;;28.62;35.94
81970;BME280;71469;51.826;4.394;2023-07-13T14:51:09;101862.03;;;28.86;35.57
81970;BME280;71469;51.826;4.394;2023-07-13T14:53:35;101869.38;;;28.59;35.64
81970;BME280;71469;51.826;4.394;2023-07-13T14:56:10;101856.72;;;28.48;35.67
81970;BME280;71469;51.826;4.394;2023-07-13T14:58:35;101851.81;;;28.45;35.75
81970;BME280;71469;51.826;4.394;2023-07-13T15:01:01;101851.63;;;28.40;36.20
81970;BME280;71469;51.826;4.394;2023-07-13T15:03:26;101855.94;;;27.83;36.72
81970;BME280;71469;51.826;4.394;2023-07-13T15:05:51;101851.06;;;27.67;37.04
81970;BME280;71469;51.826;4.394;2023-07-13T15:08:18;101849.00;;;27.69;37.02
81970;BME280;71469;51.826;4.394;2023-07-13T15:10:43;101845.56;;;27.42;37.14
81970;BME280;71469;51.826;4.394;2023-07-13T15:15:40;101850.28;;;27.14;37.93
81970;BME280;71469;51.826;4.394;2023-07-13T15:18:11;101843.19;;;26.48;39.07
81970;BME280;71469;51.826;4.394;2023-07-13T15:20:37;101850.47;;;26.26;39.87
81970;BME280;71469;51.826;4.394;2023-07-13T15:23:03;101853.66;;;26.62;39.33
81970;BME280;71469;51.826;4.394;2023-07-13T15:25:30;101855.81;;;26.19;40.11
81970;BME280;71469;51.826;4.394;2023-07-13T15:27:57;101861.72;;;25.87;41.13
81970;BME280;71469;51.826;4.394;2023-07-13T15:30:25;101851.28;;;26.20;40.99
81970;BME280;71469;51.826;4.394;2023-07-13T15:32:52;101858.84;;;26.16;41.13
81970;BME280;71469;51.826;4.394;2023-07-13T15:35:22;101848.88;;;26.38;40.49
81970;BME280;71469;51.826;4.394;2023-07-13T15:37:48;101853.22;;;26.05;40.82
81970;BME280;71469;51.826;4.394;2023-07-13T15:40:15;101858.88;;;25.89;41.02
81970;BME280;71469;51.826;4.394;2023-07-13T15:42:41;101857.97;;;25.68;41.29
81970;BME280;71469;51.826;4.394;2023-07-13T15:45:16;101867.59;;;25.48;41.84
81970;BME280;71469;51.826;4.394;2023-07-13T15:47:42;101852.78;;;25.60;41.60
81970;BME280;71469;51.826;4.394;2023-07-13T15:50:17;101860.13;;;25.93;40.79
81970;BME280;71469;51.826;4.394;2023-07-13T15:52:44;101845.09;;;25.44;41.57
81970;BME280;71469;51.826;4.394;2023-07-13T15:55:12;101857.63;;;25.50;41.65
81970;BME280;71469;51.826;4.394;2023-07-13T15:57:38;101859.50;;;25.56;40.93
81970;BME280;71469;51.826;4.394;2023-07-13T16:00:14;101860.47;;;25.27;41.74
81970;BME280;71469;51.826;4.394;2023-07-13T16:02:41;101868.69;;;25.33;41.77
81970;BME280;71469;51.826;4.394;2023-07-13T16:05:06;101868.59;;;25.47;41.56
81970;BME280;71469;51.826;4.394;2023-07-13T16:07:32;101863.94;;;25.77;40.74
81970;BME280;71469;51.826;4.394;2023-07-13T16:09:57;101854.75;;;25.79;41.13
81970;BME280;71469;51.826;4.394;2023-07-13T16:12:22;101858.25;;;25.52;41.62
81970;BME280;71469;51.826;4.394;2023-07-13T16:14:48;101864.19;;;25.33;42.29
81970;BME280;71469;51.826;4.394;2023-07-13T16:17:15;101843.09;;;25.25;42.54
81970;BME280;71469;51.826;4.394;2023-07-13T16:19:41;101865.94;;;25.47;42.46
81970;BME280;71469;51.826;4.394;2023-07-13T16:22:18;101858.75;;;25.62;42.15
81970;BME280;71469;51.826;4.394;2023-07-13T16:24:44;101857.66;;;25.29;42.99
81970;BME280;71469;51.826;4.394;2023-07-13T16:27:11;101862.34;;;25.06;43.42
81970;BME280;71469;51.826;4.394;2023-07-13T16:29:38;101857.16;;;24.98;43.68
81970;BME280;71469;51.826;4.394;2023-07-13T16:32:10;101869.66;;;25.04;44.28
81970;BME280;71469;51.826;4.394;2023-07-13T16:34:37;101859.44;;;25.01;43.99
81970;BME280;71469;51.826;4.394;2023-07-13T16:37:16;101872.25;;;25.46;43.03
81970;BME280;71469;51.826;4.394;2023-07-13T16:39:47;101872.81;;;25.97;42.06
81970;BME280;71469;51.826;4.394;2023-07-13T16:42:12;101872.31;;;26.15;41.25
81970;BME280;71469;51.826;4.394;2023-07-13T16:44:38;101874.88;;;26.02;41.61
81970;BME280;71469;51.826;4.394;2023-07-13T16:47:08;101871.25;;;25.47;42.24
81970;BME280;71469;51.826;4.394;2023-07-13T16:49:37;101867.66;;;25.06;43.34
81970;BME280;71469;51.826;4.394;2023-07-13T16:52:04;101853.56;;;25.05;43.22
81970;BME280;71469;51.826;4.394;2023-07-13T16:54:34;101868.03;;;25.03;43.97
81970;BME280;71469;51.826;4.394;2023-07-13T16:57:03;101859.56;;;25.14;43.56
81970;BME280;71469;51.826;4.394;2023-07-13T16:59:33;101866.06;;;25.11;43.66
81970;BME280;71469;51.826;4.394;2023-07-13T17:02:00;101862.66;;;25.17;44.02
81970;BME280;71469;51.826;4.394;2023-07-13T17:04:27;101864.34;;;25.04;44.22
81970;BME280;71469;51.826;4.394;2023-07-13T17:06:55;101845.66;;;25.12;43.97
81970;BME280;71469;51.826;4.394;2023-07-13T17:09:21;101848.94;;;25.14;43.85
81970;BME280;71469;51.826;4.394;2023-07-13T17:11:49;101858.56;;;24.94;45.00
81970;BME280;71469;51.826;4.394;2023-07-13T17:14:17;101859.69;;;25.06;44.31
81970;BME280;71469;51.826;4.394;2023-07-13T17:16:49;101864.41;;;25.10;44.05
81970;BME280;71469;51.826;4.394;2023-07-13T17:19:17;101854.50;;;24.98;43.28
81970;BME280;71469;51.826;4.394;2023-07-13T17:21:44;101854.97;;;24.30;44.54
81970;BME280;71469;51.826;4.394;2023-07-13T17:24:21;101848.03;;;23.41;46.13
81970;BME280;71469;51.826;4.394;2023-07-13T17:26:49;101865.09;;;23.30;47.23
81970;BME280;71469;51.826;4.394;2023-07-13T17:29:16;101861.13;;;23.34;47.19
81970;BME280;71469;51.826;4.394;2023-07-13T17:31:42;101859.00;;;23.30;47.12
81970;BME280;71469;51.826;4.394;2023-07-13T17:34:11;101870.50;;;23.59;46.60
81970;BME280;71469;51.826;4.394;2023-07-13T17:36:37;101865.97;;;23.68;45.83
81970;BME280;71469;51.826;4.394;2023-07-13T17:39:12;101857.34;;;23.66;46.02
81970;BME280;71469;51.826;4.394;2023-07-13T17:41:38;101856.81;;;23.85;45.59
81970;BME280;71469;51.826;4.394;2023-07-13T17:44:09;101854.34;;;23.54;46.25
81970;BME280;71469;51.826;4.394;2023-07-13T17:46:34;101863.88;;;23.18;47.18
81970;BME280;71469;51.826;4.394;2023-07-13T17:49:00;101846.53;;;23.01;47.66
81970;BME280;71469;51.826;4.394;2023-07-13T17:51:25;101866.09;;;22.92;48.23
81970;BME280;71469;51.826;4.394;2023-07-13T17:53:53;101852.75;;;23.08;48.09
81970;BME280;71469;51.826;4.394;2023-07-13T17:56:21;101857.09;;;23.01;48.55
81970;BME280;71469;51.826;4.394;2023-07-13T17:58:48;101855.56;;;23.06;48.31
81970;BME280;71469;51.826;4.394;2023-07-13T18:01:18;101854.44;;;23.24;48.12
81970;BME280;71469;51.826;4.394;2023-07-13T18:03:46;101873.41;;;23.27;47.45
81970;BME280;71469;51.826;4.394;2023-07-13T18:06:30;101871.66;;;23.20;47.66
81970;BME280;71469;51.826;4.394;2023-07-13T18:08:59;101865.91;;;23.16;47.36
81970;BME280;71469;51.826;4.394;2023-07-13T18:11:24;101874.25;;;23.05;47.18
81970;BME280;71469;51.826;4.394;2023-07-13T18:13:52;101866.44;;;22.89;47.49
81970;BME280;71469;51.826;4.394;2023-07-13T18:16:21;101870.72;;;22.90;47.88
81970;BME280;71469;51.826;4.394;2023-07-13T18:18:50;101868.50;;;23.01;47.17
81970;BME280;71469;51.826;4.394;2023-07-13T18:21:15;101863.44;;;22.92;47.08
81970;BME280;71469;51.826;4.394;2023-07-13T18:23:42;101868.97;;;23.05;47.11
81970;BME280;71469;51.826;4.394;2023-07-13T18:26:10;101867.66;;;23.01;46.98
81970;BME280;71469;51.826;4.394;2023-07-13T18:28:36;101870.53;;;22.91;47.17
81970;BME280;71469;51.826;4.394;2023-07-13T18:31:01;101869.44;;;22.86;47.30
81970;BME280;71469;51.826;4.394;2023-07-13T18:33:28;101877.41;;;22.78;47.55
81970;BME280;71469;51.826;4.394;2023-07-13T18:35:56;101863.00;;;22.57;48.03
81970;BME280;71469;51.826;4.394;2023-07-13T18:38:25;101873.97;;;22.38;48.48
81970;BME280;71469;51.826;4.394;2023-07-13T18:40:52;101890.22;;;22.27;48.86
81970;BME280;71469;51.826;4.394;2023-07-13T18:43:19;101895.53;;;22.11;48.65
81970;BME280;71469;51.826;4.394;2023-07-13T18:45:45;101890.78;;;21.98;49.00
81970;BME280;71469;51.826;4.394;2023-07-13T18:48:13;101887.19;;;21.91;49.63
81970;BME280;71469;51.826;4.394;2023-07-13T18:50:43;101884.91;;;21.88;49.83
81970;BME280;71469;51.826;4.394;2023-07-13T18:53:13;101893.94;;;21.86;50.34
81970;BME280;71469;51.826;4.394;2023-07-13T18:55:40;101881.09;;;21.67;50.79
81970;BME280;71469;51.826;4.394;2023-07-13T18:58:05;101885.41;;;21.60;51.31
81970;BME280;71469;51.826;4.394;2023-07-13T19:00:31;101893.31;;;21.60;51.57
81970;BME280;71469;51.826;4.394;2023-07-13T19:02:57;101885.56;;;21.58;51.66
81970;BME280;71469;51.826;4.394;2023-07-13T19:05:25;101886.75;;;21.56;51.95
81970;BME280;71469;51.826;4.394;2023-07-13T19:07:52;101892.69;;;21.49;52.11
81970;BME280;71469;51.826;4.394;2023-07-13T19:10:22;101893.03;;;21.38;52.54
81970;BME280;71469;51.826;4.394;2023-07-13T19:12:52;101887.22;;;21.27;52.96
81970;BME280;71469;51.826;4.394;2023-07-13T19:15:22;101883.78;;;21.10;53.16
81970;BME280;71469;51.826;4.394;2023-07-13T19:17:50;101877.47;;;21.03;53.15
81970;BME280;71469;51.826;4.394;2023-07-13T19:20:16;101879.31;;;21.03;53.13
81970;BME280;71469;51.826;4.394;2023-07-13T19:22:49;101888.00;;;21.03;53.12
81970;BME280;71469;51.826;4.394;2023-07-13T19:25:15;101879.13;;;20.96;53.09
81970;BME280;71469;51.826;4.394;2023-07-13T19:27:41;101879.78;;;20.90;53.38
81970;BME280;71469;51.826;4.394;2023-07-13T19:30:11;101880.44;;;20.84;53.44
81970;BME280;71469;51.826;4.394;2023-07-13T19:32:36;101880.91;;;20.79;53.79
81970;BME280;71469;51.826;4.394;2023-07-13T19:35:02;101887.69;;;20.90;53.42
81970;BME280;71469;51.826;4.394;2023-07-13T19:37:28;101883.72;;;20.78;53.49
81970;BME280;71469;51.826;4.394;2023-07-13T19:39:55;101868.47;;;20.48;54.24
81970;BME280;71469;51.826;4.394;2023-07-13T19:42:22;101888.69;;;20.39;54.35
81970;BME280;71469;51.826;4.394;2023-07-13T19:44:48;101889.59;;;20.22;54.81
81970;BME280;71469;51.826;4.394;2023-07-13T19:47:16;101902.16;;;20.10;54.87
81970;BME280;71469;51.826;4.394;2023-07-13T19:49:42;101900.47;;;20.01;55.14
81970;BME280;71469;51.826;4.394;2023-07-13T19:52:16;101893.91;;;19.97;55.31
81970;BME280;71469;51.826;4.394;2023-07-13T19:54:42;101888.59;;;19.89;55.35
81970;BME280;71469;51.826;4.394;2023-07-13T19:57:15;101893.34;;;19.85;55.25
81970;BME280;71469;51.826;4.394;2023-07-13T19:59:40;101896.41;;;19.81;55.53
81970;BME280;71469;51.826;4.394;2023-07-13T20:02:06;101891.13;;;19.73;55.88
81970;BME280;71469;51.826;4.394;2023-07-13T20:04:31;101891.06;;;19.65;55.63
81970;BME280;71469;51.826;4.394;2023-07-13T20:06:58;101888.75;;;19.62;55.85
81970;BME280;71469;51.826;4.394;2023-07-13T20:09:25;101889.97;;;19.50;55.95
81970;BME280;71469;51.826;4.394;2023-07-13T20:11:59;101884.50;;;19.43;56.06
81970;BME280;71469;51.826;4.394;2023-07-13T20:14:25;101884.25;;;19.37;56.42
81970;BME280;71469;51.826;4.394;2023-07-13T20:16:58;101898.03;;;19.39;56.86
81970;BME280;71469;51.826;4.394;2023-07-13T20:19:27;101898.34;;;19.35;56.91
81970;BME280;71469;51.826;4.394;2023-07-13T20:21:55;101888.31;;;19.31;56.79
81970;BME280;71469;51.826;4.394;2023-07-13T20:24:20;101891.47;;;19.34;57.42
81970;BME280;71469;51.826;4.394;2023-07-13T20:26:47;101900.47;;;19.32;58.05
81970;BME280;71469;51.826;4.394;2023-07-13T20:29:15;101897.03;;;19.31;58.27
81970;BME280;71469;51.826;4.394;2023-07-13T20:31:42;101901.97;;;19.34;58.18
81970;BME280;71469;51.826;4.394;2023-07-13T20:34:25;101901.28;;;19.32;58.72
81970;BME280;71469;51.826;4.394;2023-07-13T20:36:54;101906.19;;;19.27;58.91
81970;BME280;71469;51.826;4.394;2023-07-13T20:39:21;101904.00;;;19.23;59.06
81970;BME280;71469;51.826;4.394;2023-07-13T20:41:48;101904.16;;;19.21;59.32
81970;BME280;71469;51.826;4.394;2023-07-13T20:44:13;101908.38;;;19.14;59.90
81970;BME280;71469;51.826;4.394;2023-07-13T20:46:39;101908.97;;;19.08;60.33
81970;BME280;71469;51.826;4.394;2023-07-13T20:49:05;101903.63;;;19.00;60.56
81970;BME280;71469;51.826;4.394;2023-07-13T20:51:31;101896.50;;;18.93;60.96
81970;BME280;71469;51.826;4.394;2023-07-13T20:53:57;101902.28;;;18.96;61.34
81970;BME280;71469;51.826;4.394;2023-07-13T20:56:26;101902.59;;;18.93;61.61
81970;BME280;71469;51.826;4.394;2023-07-13T20:58:52;101907.84;;;18.93;61.63
81970;BME280;71469;51.826;4.394;2023-07-13T21:01:31;101898.72;;;18.88;62.66
81970;BME280;71469;51.826;4.394;2023-07-13T21:04:03;101907.44;;;18.88;62.15
81970;BME280;71469;51.826;4.394;2023-07-13T21:06:29;101903.47;;;18.84;62.91
81970;BME280;71469;51.826;4.394;2023-07-13T21:08:57;101901.44;;;18.78;62.43
81970;BME280;71469;51.826;4.394;2023-07-13T21:11:22;101904.50;;;18.73;62.84
81970;BME280;71469;51.826;4.394;2023-07-13T21:13:48;101896.38;;;18.67;63.42
81970;BME280;71469;51.826;4.394;2023-07-13T21:16:18;101908.25;;;18.71;63.43
81970;BME280;71469;51.826;4.394;2023-07-13T21:18:44;101892.72;;;18.77;63.45
81970;BME280;71469;51.826;4.394;2023-07-13T21:21:12;101903.97;;;18.88;63.24
81970;BME280;71469;51.826;4.394;2023-07-13T21:23:38;101904.69;;;18.90;63.30
81970;BME280;71469;51.826;4.394;2023-07-13T21:26:05;101904.22;;;18.94;63.49
81970;BME280;71469;51.826;4.394;2023-07-13T21:28:36;101909.31;;;18.78;64.28
81970;BME280;71469;51.826;4.394;2023-07-13T21:31:05;101908.47;;;18.60;64.91
81970;BME280;71469;51.826;4.394;2023-07-13T21:33:31;101914.28;;;18.54;65.10
81970;BME280;71469;51.826;4.394;2023-07-13T21:35:58;101906.25;;;18.46;65.78
81970;BME280;71469;51.826;4.394;2023-07-13T21:38:35;101914.06;;;18.38;66.00
81970;BME280;71469;51.826;4.394;2023-07-13T21:41:03;101918.91;;;18.33;66.14
81970;BME280;71469;51.826;4.394;2023-07-13T21:43:30;101916.19;;;18.24;66.51
81970;BME280;71469;51.826;4.394;2023-07-13T21:45:56;101916.06;;;18.16;66.61
81970;BME280;71469;51.826;4.394;2023-07-13T21:48:21;101917.91;;;18.06;66.96
81970;BME280;71469;51.826;4.394;2023-07-13T21:50:50;101914.59;;;18.04;67.45
81970;BME280;71469;51.826;4.394;2023-07-13T21:53:21;101912.94;;;18.03;67.33
81970;BME280;71469;51.826;4.394;2023-07-13T21:55:48;101913.25;;;18.00;67.36
81970;BME280;71469;51.826;4.394;2023-07-13T21:58:24;101911.31;;;17.93;67.69
81970;BME280;71469;51.826;4.394;2023-07-13T22:00:51;101909.41;;;17.85;67.99
81970;BME280;71469;51.826;4.394;2023-07-13T22:03:25;101909.81;;;17.81;68.35
81970;BME280;71469;51.826;4.394;2023-07-13T22:05:52;101917.69;;;17.81;68.44
81970;BME280;71469;51.826;4.394;2023-07-13T22:08:20;101917.97;;;17.78;68.66
81970;BME280;71469;51.826;4.394;2023-07-13T22:10:47;101905.56;;;17.70;68.71
81970;BME280;71469;51.826;4.394;2023-07-13T22:13:13;101912.59;;;17.69;69.17
81970;BME280;71469;51.826;4.394;2023-07-13T22:15:38;101908.34;;;17.59;69.13
81970;BME280;71469;51.826;4.394;2023-07-13T22:18:12;101914.28;;;17.61;69.75
81970;BME280;71469;51.826;4.394;2023-07-13T22:20:38;101905.88;;;17.57;69.71
81970;BME280;71469;51.826;4.394;2023-07-13T22:23:15;101901.97;;;17.52;70.03
81970;BME280;71469;51.826;4.394;2023-07-13T22:25:41;101899.75;;;17.47;70.09
81970;BME280;71469;51.826;4.394;2023-07-13T22:28:12;101900.31;;;17.41;70.05
81970;BME280;71469;51.826;4.394;2023-07-13T22:30:37;101910.69;;;17.43;70.50
81970;BME280;71469;51.826;4.394;2023-07-13T22:33:19;101906.66;;;17.39;70.42
81970;BME280;71469;51.826;4.394;2023-07-13T22:35:46;101910.97;;;17.40;70.45
81970;BME280;71469;51.826;4.394;2023-07-13T22:38:15;101903.66;;;17.34;70.62
81970;BME280;71469;51.826;4.394;2023-07-13T22:40:41;101910.81;;;17.32;70.58
81970;BME280;71469;51.826;4.394;2023-07-13T22:43:26;101910.81;;;17.32;70.68
81970;BME280;71469;51.826;4.394;2023-07-13T22:45:57;101908.88;;;17.34;70.62
81970;BME280;71469;51.826;4.394;2023-07-13T22:48:24;101907.50;;;17.30;71.26
81970;BME280;71469;51.826;4.394;2023-07-13T22:50:51;101910.81;;;17.32;70.39
81970;BME280;71469;51.826;4.394;2023-07-13T22:53:25;101908.22;;;17.32;70.53
81970;BME280;71469;51.826;4.394;2023-07-13T22:55:52;101912.75;;;17.30;70.68
81970;BME280;71469;51.826;4.394;2023-07-13T22:58:17;101910.00;;;17.22;70.80
81970;BME280;71469;51.826;4.394;2023-07-13T23:00:44;101913.56;;;17.21;71.29
81970;BME280;71469;51.826;4.394;2023-07-13T23:03:13;101903.34;;;17.17;71.54
81970;BME280;71469;51.826;4.394;2023-07-13T23:05:39;101906.97;;;17.17;71.61
81970;BME280;71469;51.826;4.394;2023-07-13T23:08:05;101898.00;;;17.09;71.79
81970;BME280;71469;51.826;4.394;2023-07-13T23:10:30;101890.13;;;17.00;72.02
81970;BME280;71469;51.826;4.394;2023-07-13T23:12:56;101897.84;;;17.01;71.99
81970;BME280;71469;51.826;4.394;2023-07-13T23:15:28;101894.53;;;16.99;72.01
81970;BME280;71469;51.826;4.394;2023-07-13T23:17:53;101897.28;;;16.98;72.40
81970;BME280;71469;51.826;4.394;2023-07-13T23:20:29;101887.91;;;16.95;72.42
81970;BME280;71469;51.826;4.394;2023-07-13T23:22:56;101894.53;;;16.99;72.32
81970;BME280;71469;51.826;4.394;2023-07-13T23:25:23;101892.03;;;16.88;72.67
81970;BME280;71469;51.826;4.394;2023-07-13T23:27:49;101888.59;;;16.88;72.78
81970;BME280;71469;51.826;4.394;2023-07-13T23:30:17;101897.00;;;16.91;72.72
81970;BME280;71469;51.826;4.394;2023-07-13T23:32:44;101902.94;;;16.93;73.08
81970;BME280;71469;51.826;4.394;2023-07-13T23:35:14;101895.38;;;16.90;73.23
81970;BME280;71469;51.826;4.394;2023-07-13T23:37:41;101895.38;;;16.90;73.39
81970;BME280;71469;51.826;4.394;2023-07-13T23:40:18;101893.44;;;16.92;73.45
81970;BME280;71469;51.826;4.394;2023-07-13T23:42:44;101890.66;;;16.94;73.18
81970;BME280;71469;51.826;4.394;2023-07-13T23:45:18;101884.91;;;16.90;73.74
81970;BME280;71469;51.826;4.394;2023-07-13T23:47:46;101883.50;;;16.86;73.71
81970;BME280;71469;51.826;4.394;2023-07-13T23:50:17;101883.50;;;16.86;73.64
81970;BME280;71469;51.826;4.394;2023-07-13T23:52:44;101877.69;;;16.83;73.92
81970;BME280;71469;51.826;4.394;2023-07-13T23:57:36;101881.44;;;16.80;73.90
